メインページ
METAR-TAF:

METAR-TAF

空港 :

ブカレスト, ルーマニア

アンリ・コアンダ国際空港

緯度: 44-33N, 経度: 026-06E, 海抜: 95m

現時点の気象観測

当レポートは24分前の20:30(UTC)に作成
南西の風 5kt
気温 1°C
湿度 86%
気圧 1016 hPa
視程: 8000m

METAR: LROP 112030Z 23005KT 8000 NSC 01/M01 Q1016 NOSIG

時間: 22:54 (20:54 UTC)

予報

当レポートは3時間54分前の17:00(UTC)に作成
予報は11日の 18時(UTC)から 12日の 18時(UTC)まで有効
変向風 4kt
視程10km以上
1,500メートル以下は雲なし、積乱雲なし
12日の 00時(UTC)から 12日の 02時(UTC)まで徐々に
西の風 14kt

TAF: LROP 111700Z 1118/1218 VRB04KT CAVOK BECMG 1200/1202 26014KT

4,000以上の空港の気象観測と天気予報(METAR報とTAF報)

利用可能な観測所は地図上に黄色い丸と赤い丸で示す。

丸の上にカーソルを重ねると観測所名を参照できる。

次にクリックすると気象観測と天気予報を参照できる。

マップの切り替え:黒色「×」印の緑ボタンをクリックして拡大、「-」印の緑ボタンをクリックして縮小、緑色の三角印をクリックして隣りの地図に切り替え


METAR-TAF: